createdAt,value
2023-05-19T00:00:50.970Z,11.40
2023-05-19T00:01:50.103Z,11.45
2023-05-19T00:02:50.162Z,11.54
2023-05-19T00:03:50.130Z,11.35
2023-05-19T00:04:50.142Z,11.24
2023-05-19T00:05:50.172Z,11.19
2023-05-19T00:06:50.210Z,11.26
2023-05-19T00:07:50.252Z,11.34
2023-05-19T00:08:50.267Z,11.36
2023-05-19T00:09:50.327Z,11.46
2023-05-19T00:10:50.287Z,11.52
2023-05-19T00:11:50.305Z,11.34
2023-05-19T00:12:57.968Z,11.25
2023-05-19T00:13:50.326Z,11.22
2023-05-19T00:14:50.314Z,11.27
2023-05-19T00:15:50.345Z,11.38
2023-05-19T00:16:50.314Z,11.45
2023-05-19T00:17:50.343Z,11.23
2023-05-19T00:18:50.318Z,11.26
2023-05-19T00:19:50.262Z,11.33
2023-05-19T00:20:50.311Z,11.36
2023-05-19T00:21:50.313Z,11.31
2023-05-19T00:22:50.274Z,11.23
2023-05-19T00:23:50.282Z,11.16
2023-05-19T00:24:50.267Z,11.21
2023-05-19T00:25:50.279Z,11.23
2023-05-19T00:26:50.275Z,11.30
2023-05-19T00:27:50.254Z,11.20
2023-05-19T00:28:50.293Z,11.17
2023-05-19T00:29:50.225Z,11.28
2023-05-19T00:30:50.288Z,11.26
2023-05-19T00:31:50.284Z,11.34
2023-05-19T00:32:50.219Z,11.40
2023-05-19T00:33:50.174Z,11.45
2023-05-19T00:34:50.173Z,11.37
2023-05-19T00:35:50.184Z,11.33
2023-05-19T00:36:50.183Z,11.30
2023-05-19T00:37:50.159Z,11.32
2023-05-19T00:38:50.155Z,11.34
2023-05-19T00:39:50.196Z,11.38
2023-05-19T00:40:50.224Z,11.40
2023-05-19T00:41:50.303Z,11.39
2023-05-19T00:42:50.298Z,11.45
2023-05-19T00:43:50.293Z,11.53
2023-05-19T00:44:50.383Z,11.51
2023-05-19T00:45:50.348Z,11.53
2023-05-19T00:46:50.473Z,11.43
2023-05-19T00:47:50.449Z,11.45
2023-05-19T00:48:50.445Z,11.51
2023-05-19T00:49:50.510Z,11.53
2023-05-19T00:50:50.480Z,11.56
2023-05-19T00:51:50.548Z,11.62
2023-05-19T00:52:50.556Z,11.56
2023-05-19T00:53:50.558Z,11.54
2023-05-19T00:54:50.577Z,11.47
2023-05-19T00:55:50.597Z,11.45
2023-05-19T00:56:50.610Z,11.45
2023-05-19T00:57:50.702Z,11.44
2023-05-19T00:58:50.715Z,11.35
2023-05-19T00:59:50.738Z,11.33
2023-05-19T01:00:50.818Z,11.23
2023-05-19T01:01:50.774Z,11.10
2023-05-19T01:02:50.845Z,11.09
2023-05-19T01:03:50.862Z,11.14
2023-05-19T01:04:50.837Z,11.25
2023-05-19T01:05:50.893Z,11.16
2023-05-19T01:06:50.918Z,11.22
2023-05-19T01:07:50.935Z,11.17
2023-05-19T01:08:50.953Z,11.08
2023-05-19T01:09:50.955Z,11.09
2023-05-19T01:10:50.983Z,11.09
2023-05-19T01:11:51.074Z,11.16
2023-05-19T01:12:51.058Z,11.19
2023-05-19T01:13:51.115Z,11.21
2023-05-19T01:14:51.117Z,11.26
2023-05-19T01:15:51.171Z,11.33
2023-05-19T01:16:51.161Z,11.36
2023-05-19T01:17:51.263Z,11.28
2023-05-19T01:18:51.290Z,11.27
2023-05-19T01:19:51.263Z,11.34
2023-05-19T01:20:51.326Z,11.36
2023-05-19T01:21:51.338Z,11.38
2023-05-19T01:22:51.312Z,11.34
2023-05-19T01:23:51.377Z,11.23
2023-05-19T01:24:51.386Z,11.22
2023-05-19T01:25:51.411Z,11.03
2023-05-19T01:26:51.511Z,10.89
2023-05-19T01:27:51.506Z,10.95
2023-05-19T01:28:51.559Z,11.04
2023-05-19T01:29:51.564Z,11.07
2023-05-19T01:30:51.643Z,11.01
2023-05-19T01:31:51.675Z,11.06
2023-05-19T01:32:51.737Z,11.08
2023-05-19T01:33:51.708Z,11.10
2023-05-19T01:34:51.719Z,11.05
2023-05-19T01:35:51.772Z,10.96
2023-05-19T01:36:51.830Z,10.83
2023-05-19T01:37:51.782Z,10.78
2023-05-19T01:38:51.792Z,10.65
2023-05-19T01:39:51.813Z,10.69
2023-05-19T01:40:51.858Z,10.74
2023-05-19T01:41:51.907Z,10.74
2023-05-19T01:42:51.953Z,10.69
2023-05-19T01:43:51.984Z,10.56
2023-05-19T01:44:51.983Z,10.47
2023-05-19T01:45:52.040Z,10.54
2023-05-19T01:46:52.000Z,10.49
2023-05-19T01:47:52.069Z,10.51
2023-05-19T01:48:52.061Z,10.47
2023-05-19T01:49:52.062Z,10.49
2023-05-19T01:50:52.099Z,10.47
2023-05-19T01:51:52.138Z,10.54
2023-05-19T01:52:52.137Z,10.53
2023-05-19T01:53:52.202Z,10.61
2023-05-19T01:54:52.202Z,10.66
2023-05-19T01:55:52.251Z,10.68
2023-05-19T01:56:52.311Z,10.63
2023-05-19T01:57:52.296Z,10.65
2023-05-19T01:58:52.333Z,10.70
2023-05-19T01:59:52.358Z,10.78
2023-05-19T02:00:52.435Z,10.82
2023-05-19T02:01:52.470Z,10.81
2023-05-19T02:03:18.269Z,10.87
2023-05-19T02:04:18.362Z,10.90
2023-05-19T02:05:18.294Z,10.91
2023-05-19T02:06:18.355Z,10.89
2023-05-19T02:07:18.354Z,10.91
2023-05-19T02:08:18.350Z,10.62
2023-05-19T02:09:18.426Z,10.57
2023-05-19T02:10:18.421Z,10.63
2023-05-19T02:11:18.423Z,10.66
2023-05-19T02:12:18.480Z,10.50
2023-05-19T02:13:18.504Z,10.39
2023-05-19T02:14:18.495Z,10.42
2023-05-19T02:15:18.577Z,10.41
2023-05-19T02:16:18.692Z,10.39
2023-05-19T02:17:18.612Z,10.39
2023-05-19T02:18:18.632Z,10.41
2023-05-19T02:19:18.719Z,10.43
2023-05-19T02:20:18.688Z,10.45
2023-05-19T02:21:18.741Z,10.42
2023-05-19T02:22:18.749Z,10.53
2023-05-19T02:23:18.788Z,10.60
2023-05-19T02:24:18.771Z,10.56
2023-05-19T02:25:18.854Z,10.57
2023-05-19T02:26:18.844Z,10.35
2023-05-19T02:27:18.882Z,10.34
2023-05-19T02:28:18.947Z,10.34
2023-05-19T02:29:19.011Z,10.30
2023-05-19T02:30:19.007Z,10.34
2023-05-19T02:31:19.127Z,10.27
2023-05-19T02:32:19.131Z,10.22
2023-05-19T02:33:19.049Z,10.24
2023-05-19T02:34:19.103Z,10.21
2023-05-19T02:35:19.134Z,10.28
2023-05-19T02:36:19.159Z,10.38
2023-05-19T02:37:19.188Z,10.48
2023-05-19T02:38:19.155Z,10.57
2023-05-19T02:39:19.284Z,10.54
2023-05-19T02:40:19.243Z,10.60
2023-05-19T02:41:19.247Z,10.65
2023-05-19T02:42:19.245Z,10.72
2023-05-19T02:43:19.266Z,10.74
2023-05-19T02:44:19.264Z,10.73
2023-05-19T02:45:19.284Z,10.76
2023-05-19T02:46:19.358Z,10.76
2023-05-19T02:47:19.320Z,10.80
2023-05-19T02:48:19.365Z,10.83
2023-05-19T02:49:19.397Z,10.81
2023-05-19T02:50:19.395Z,10.85
2023-05-19T02:51:19.412Z,10.81
2023-05-19T02:52:19.418Z,10.83
2023-05-19T02:53:19.431Z,10.80
2023-05-19T02:54:19.437Z,10.78
2023-05-19T02:55:19.502Z,10.73
2023-05-19T02:56:19.547Z,10.76
2023-05-19T02:57:19.547Z,10.79
2023-05-19T02:58:19.562Z,10.81
2023-05-19T02:59:19.621Z,10.83
2023-05-19T03:00:19.627Z,10.85
2023-05-19T03:01:19.702Z,10.89
2023-05-19T03:02:19.740Z,10.88
2023-05-19T03:03:19.937Z,10.90
2023-05-19T03:04:19.864Z,10.93
2023-05-19T03:05:19.870Z,10.91
2023-05-19T03:06:19.929Z,10.90
2023-05-19T03:07:19.989Z,10.91
2023-05-19T03:08:20.052Z,10.91
2023-05-19T03:09:20.055Z,10.81
2023-05-19T03:10:20.099Z,10.82
2023-05-19T03:11:20.155Z,10.81
2023-05-19T03:12:20.222Z,10.83
2023-05-19T03:13:20.233Z,10.83
2023-05-19T03:14:20.293Z,10.74
2023-05-19T03:15:20.297Z,10.74
2023-05-19T03:16:20.374Z,10.77
2023-05-19T03:17:20.448Z,10.80
2023-05-19T03:18:20.483Z,10.83
2023-05-19T03:19:20.516Z,10.86
2023-05-19T03:20:20.509Z,10.89
2023-05-19T03:21:20.544Z,10.90
2023-05-19T03:22:20.566Z,10.88
2023-05-19T03:23:43.075Z,10.86
2023-05-19T03:24:43.112Z,10.81
2023-05-19T03:25:43.097Z,10.82
2023-05-19T03:26:43.115Z,10.82
2023-05-19T03:27:43.052Z,10.83
2023-05-19T03:28:43.459Z,10.79
2023-05-19T03:29:43.029Z,10.77
2023-05-19T03:30:43.072Z,10.77
2023-05-19T03:31:43.043Z,10.80
2023-05-19T03:32:43.108Z,10.83
2023-05-19T03:33:43.083Z,10.84
2023-05-19T03:34:43.020Z,10.85
2023-05-19T03:35:43.005Z,10.86
2023-05-19T03:36:43.033Z,10.89
2023-05-19T03:37:42.984Z,10.89
2023-05-19T03:38:43.022Z,10.90
2023-05-19T03:39:42.944Z,10.90
2023-05-19T03:40:42.982Z,10.88
2023-05-19T03:41:42.966Z,10.86
2023-05-19T03:42:43.010Z,10.86
2023-05-19T03:43:42.957Z,10.85
2023-05-19T03:44:42.921Z,10.81
2023-05-19T03:45:42.965Z,10.77
2023-05-19T03:46:42.941Z,10.78
2023-05-19T03:47:42.926Z,10.64
2023-05-19T03:48:42.892Z,10.62
2023-05-19T03:49:42.975Z,10.38
2023-05-19T03:50:42.905Z,10.22
2023-05-19T03:51:42.925Z,10.20
2023-05-19T03:52:42.869Z,10.26
2023-05-19T03:53:42.876Z,10.27
2023-05-19T03:54:42.890Z,10.34
2023-05-19T03:55:42.851Z,10.43
2023-05-19T03:56:42.856Z,10.42
2023-05-19T03:57:42.845Z,10.43
2023-05-19T03:58:42.821Z,10.45
2023-05-19T03:59:42.831Z,10.45
2023-05-19T04:00:42.857Z,10.49
2023-05-19T04:01:42.935Z,10.49
2023-05-19T04:02:42.920Z,10.54
2023-05-19T04:03:42.830Z,10.53
2023-05-19T04:04:42.833Z,10.50
2023-05-19T04:05:42.824Z,10.31
2023-05-19T04:06:42.792Z,10.22
2023-05-19T04:07:44.852Z,10.07
2023-05-19T04:08:42.780Z,10.15
2023-05-19T04:09:42.764Z,10.21
2023-05-19T04:10:42.760Z,10.25
2023-05-19T04:11:42.826Z,10.34
2023-05-19T04:12:42.742Z,10.46
2023-05-19T04:13:43.415Z,10.49
2023-05-19T04:14:42.718Z,10.54
2023-05-19T04:15:42.757Z,10.63
2023-05-19T04:16:42.735Z,10.63
2023-05-19T04:17:42.705Z,10.68
2023-05-19T04:18:42.688Z,10.73
2023-05-19T04:19:42.712Z,10.80
2023-05-19T04:20:42.724Z,10.86
2023-05-19T04:21:42.724Z,10.92
2023-05-19T04:22:42.780Z,11.00
2023-05-19T04:23:42.771Z,11.03
2023-05-19T04:24:42.792Z,11.10
2023-05-19T04:25:42.802Z,11.16
2023-05-19T04:26:42.859Z,11.21
2023-05-19T04:27:42.902Z,11.27
2023-05-19T04:28:42.931Z,11.32
2023-05-19T04:29:42.926Z,11.29
2023-05-19T04:30:42.966Z,11.30
2023-05-19T04:31:43.025Z,11.34
2023-05-19T04:32:42.946Z,11.33
2023-05-19T04:33:42.957Z,11.23
2023-05-19T04:34:43.010Z,11.21
2023-05-19T04:35:43.013Z,11.07
2023-05-19T04:36:43.073Z,11.00
2023-05-19T04:37:43.078Z,10.93
2023-05-19T04:38:43.093Z,10.71
2023-05-19T04:39:43.161Z,10.78
2023-05-19T04:40:43.105Z,10.80
2023-05-19T04:41:43.128Z,10.76
2023-05-19T04:42:43.165Z,10.74
2023-05-19T04:43:43.168Z,10.64
2023-05-19T04:44:43.193Z,10.59
2023-05-19T04:45:43.229Z,10.69
2023-05-19T04:46:43.298Z,10.53
2023-05-19T04:47:43.266Z,10.70
2023-05-19T04:48:43.266Z,10.66
2023-05-19T04:49:43.288Z,10.65
2023-05-19T04:50:43.273Z,10.47
2023-05-19T04:51:43.355Z,10.35
2023-05-19T04:52:43.399Z,10.26
2023-05-19T04:53:43.425Z,10.19
2023-05-19T04:54:43.446Z,10.34
2023-05-19T04:55:43.577Z,10.54
2023-05-19T04:56:43.543Z,10.33
2023-05-19T04:57:43.512Z,10.51
2023-05-19T04:58:43.588Z,10.49
2023-05-19T04:59:43.641Z,10.68
2023-05-19T05:00:43.646Z,10.81
2023-05-19T05:01:43.731Z,10.88
2023-05-19T05:02:43.796Z,10.84
2023-05-19T05:03:43.810Z,10.82
2023-05-19T05:04:43.713Z,10.91
2023-05-19T05:05:43.745Z,10.91
2023-05-19T05:06:43.763Z,10.79
2023-05-19T05:07:43.765Z,10.81
2023-05-19T05:08:44.779Z,10.88
2023-05-19T05:09:43.823Z,10.67
2023-05-19T05:10:43.861Z,10.38
2023-05-19T05:11:43.917Z,10.57
2023-05-19T05:12:43.923Z,10.69
2023-05-19T05:13:43.940Z,10.66
2023-05-19T05:14:43.951Z,10.82
2023-05-19T05:15:43.986Z,10.95
2023-05-19T05:16:44.217Z,10.95
2023-05-19T05:17:44.088Z,11.05
2023-05-19T05:18:45.025Z,11.08
2023-05-19T05:19:44.091Z,11.19
2023-05-19T05:20:44.101Z,11.26
2023-05-19T05:21:44.099Z,11.25
2023-05-19T05:22:44.082Z,11.27
2023-05-19T05:23:44.156Z,11.23
2023-05-19T05:24:44.130Z,11.28
2023-05-19T05:25:44.232Z,11.27
2023-05-19T05:26:44.215Z,11.44
2023-05-19T05:27:44.255Z,11.14
2023-05-19T05:28:44.237Z,11.08
2023-05-19T05:29:44.281Z,11.15
2023-05-19T05:30:44.300Z,11.20
2023-05-19T05:31:44.376Z,11.24
2023-05-19T05:32:44.485Z,11.27
2023-05-19T05:33:44.416Z,11.40
2023-05-19T05:34:44.381Z,11.44
2023-05-19T05:35:44.461Z,11.63
2023-05-19T05:36:44.510Z,11.70
2023-05-19T05:37:44.530Z,11.50
2023-05-19T05:38:44.550Z,11.18
2023-05-19T05:39:44.541Z,11.25
2023-05-19T05:40:44.595Z,11.41
2023-05-19T05:41:44.651Z,11.38
2023-05-19T05:42:44.676Z,11.42
2023-05-19T05:43:44.746Z,11.59
2023-05-19T05:44:44.754Z,11.80
2023-05-19T05:45:44.811Z,11.27
2023-05-19T05:46:44.805Z,11.54
2023-05-19T05:47:44.862Z,11.78
2023-05-19T05:48:44.880Z,12.01
2023-05-19T05:49:44.884Z,12.01
2023-05-19T05:50:44.904Z,11.70
2023-05-19T05:51:57.918Z,11.86
2023-05-19T05:52:45.927Z,12.03
2023-05-19T05:53:44.924Z,11.83
2023-05-19T05:54:44.939Z,11.38
2023-05-19T05:55:44.900Z,10.70
2023-05-19T05:56:44.921Z,10.94
2023-05-19T05:57:44.904Z,11.09
2023-05-19T05:58:44.874Z,11.11
2023-05-19T05:59:44.882Z,11.09
2023-05-19T06:00:45.287Z,11.26
2023-05-19T06:01:44.909Z,11.28
2023-05-19T06:02:44.972Z,11.50
2023-05-19T06:03:44.941Z,11.76
2023-05-19T06:04:44.837Z,11.81
2023-05-19T06:05:44.894Z,11.90
2023-05-19T06:06:44.846Z,12.01
2023-05-19T06:07:44.834Z,11.69
2023-05-19T06:08:44.888Z,11.81
2023-05-19T06:09:44.932Z,12.10
2023-05-19T06:10:47.200Z,12.41
2023-05-19T06:11:45.165Z,12.57
2023-05-19T06:12:45.143Z,12.61
2023-05-19T06:13:45.363Z,12.54
2023-05-19T06:14:45.206Z,12.83
2023-05-19T06:15:45.365Z,13.16
2023-05-19T06:16:45.329Z,13.60
2023-05-19T06:17:45.374Z,14.00
2023-05-19T06:18:45.405Z,14.27
2023-05-19T06:19:45.420Z,14.51
2023-05-19T06:20:45.431Z,14.43
2023-05-19T06:21:45.450Z,14.35
2023-05-19T06:22:45.457Z,14.64
2023-05-19T06:23:45.525Z,14.44
2023-05-19T06:24:45.611Z,14.46
2023-05-19T06:25:45.593Z,14.71
2023-05-19T06:26:45.624Z,14.85
2023-05-19T06:27:45.666Z,15.15
2023-05-19T06:28:45.663Z,15.11
2023-05-19T06:29:45.733Z,15.15
2023-05-19T06:30:45.743Z,14.26
2023-05-19T06:31:45.849Z,14.21
2023-05-19T06:32:45.868Z,14.07
2023-05-19T06:33:45.864Z,13.54
2023-05-19T06:34:45.846Z,13.73
2023-05-19T06:35:45.846Z,13.75
2023-05-19T06:36:45.909Z,13.52
2023-05-19T06:37:45.889Z,13.50
2023-05-19T06:38:45.951Z,13.74
2023-05-19T06:39:45.985Z,13.73
2023-05-19T06:40:45.968Z,13.97
2023-05-19T06:41:45.987Z,14.37
2023-05-19T06:42:46.013Z,14.51
2023-05-19T06:43:46.048Z,15.00
2023-05-19T06:44:46.112Z,15.31
2023-05-19T06:45:46.135Z,15.48
2023-05-19T06:46:46.292Z,15.70
2023-05-19T06:47:46.416Z,15.58
2023-05-19T06:48:46.296Z,15.50
2023-05-19T06:49:46.287Z,15.54
2023-05-19T06:50:46.303Z,16.02
2023-05-19T06:51:46.370Z,16.67
2023-05-19T06:52:46.408Z,17.21
2023-05-19T06:53:46.518Z,17.63
2023-05-19T06:54:46.438Z,18.09
2023-05-19T06:55:58.130Z,18.10
2023-05-19T06:56:47.508Z,17.04
2023-05-19T06:57:46.537Z,17.37
2023-05-19T06:58:46.524Z,17.48
2023-05-19T06:59:46.476Z,16.82
2023-05-19T07:00:46.457Z,16.86
2023-05-19T07:01:46.481Z,17.40
2023-05-19T07:02:46.577Z,17.93
2023-05-19T07:03:46.534Z,17.69
2023-05-19T07:04:46.448Z,17.74
2023-05-19T07:05:46.444Z,17.94
2023-05-19T07:06:46.465Z,16.84
2023-05-19T07:07:46.434Z,16.11
2023-05-19T07:08:46.400Z,16.34
2023-05-19T07:10:16.527Z,16.22
2023-05-19T07:11:16.489Z,16.27
2023-05-19T07:12:16.560Z,16.21
2023-05-19T07:13:16.538Z,15.81
2023-05-19T07:14:16.520Z,15.33
2023-05-19T07:15:16.532Z,14.87
2023-05-19T07:16:16.580Z,14.31
2023-05-19T07:17:16.510Z,14.64
2023-05-19T07:18:16.536Z,14.20
2023-05-19T07:19:16.572Z,14.10
2023-05-19T07:20:16.505Z,13.89
2023-05-19T07:21:16.486Z,14.21
2023-05-19T07:22:16.479Z,14.48
2023-05-19T07:23:17.450Z,14.98
2023-05-19T07:24:16.473Z,15.10
2023-05-19T07:25:16.475Z,15.19
2023-05-19T07:26:16.469Z,15.32
2023-05-19T07:27:16.494Z,14.58
2023-05-19T07:28:16.462Z,14.73
2023-05-19T07:29:16.457Z,14.93
2023-05-19T07:30:16.405Z,14.31
2023-05-19T07:31:16.440Z,14.91
2023-05-19T07:32:16.547Z,15.37
2023-05-19T07:33:16.467Z,15.75
2023-05-19T07:34:16.383Z,15.80
2023-05-19T07:35:16.422Z,16.17
2023-05-19T07:36:16.410Z,16.60
2023-05-19T07:37:16.406Z,16.72
2023-05-19T07:38:16.345Z,16.80
2023-05-19T07:39:16.391Z,16.71
2023-05-19T07:40:16.337Z,16.52
2023-05-19T07:41:16.329Z,15.76
2023-05-19T07:42:16.340Z,15.91
2023-05-19T07:43:16.333Z,15.30
2023-05-19T07:44:16.298Z,15.35
2023-05-19T07:45:16.315Z,15.46
2023-05-19T07:46:16.393Z,15.76
2023-05-19T07:47:16.324Z,16.05
2023-05-19T07:48:16.304Z,16.04
2023-05-19T07:49:16.286Z,15.99
2023-05-19T07:50:16.335Z,16.13
2023-05-19T07:51:16.309Z,16.22
2023-05-19T07:52:16.268Z,16.10
2023-05-19T07:53:16.273Z,16.30
2023-05-19T07:54:16.211Z,16.42
2023-05-19T07:55:16.244Z,16.51
2023-05-19T07:56:16.218Z,16.43
2023-05-19T07:57:16.225Z,16.41
2023-05-19T07:58:16.197Z,15.92
2023-05-19T07:59:16.208Z,16.21
2023-05-19T08:00:16.229Z,16.56
2023-05-19T08:01:16.211Z,16.86
2023-05-19T08:02:16.257Z,16.52
2023-05-19T08:03:16.447Z,16.18
2023-05-19T08:04:16.329Z,16.19
2023-05-19T08:05:16.228Z,16.08
2023-05-19T08:06:16.265Z,16.30
2023-05-19T08:07:16.326Z,16.60
2023-05-19T08:08:16.318Z,16.90
2023-05-19T08:09:16.387Z,17.04
2023-05-19T08:10:16.433Z,17.18
2023-05-19T08:11:16.436Z,17.23
2023-05-19T08:12:16.493Z,17.05
2023-05-19T08:13:16.437Z,16.75
2023-05-19T08:14:16.472Z,16.95
2023-05-19T08:15:16.558Z,17.00
2023-05-19T08:16:16.604Z,17.22
2023-05-19T08:17:16.613Z,17.49
2023-05-19T08:18:16.564Z,17.68
2023-05-19T08:19:16.727Z,17.87
2023-05-19T08:20:16.697Z,17.90
2023-05-19T08:21:16.772Z,17.84
2023-05-19T08:22:16.769Z,18.03
2023-05-19T08:23:16.775Z,17.60
2023-05-19T08:24:16.839Z,16.65
2023-05-19T08:25:16.837Z,16.72
2023-05-19T08:26:16.897Z,17.26
2023-05-19T08:27:16.910Z,17.70
2023-05-19T08:28:16.924Z,17.62
2023-05-19T08:29:16.922Z,17.27
2023-05-19T08:30:16.922Z,17.22
2023-05-19T08:31:17.002Z,17.90
2023-05-19T08:32:17.025Z,18.31
2023-05-19T08:33:17.054Z,17.67
2023-05-19T08:34:17.093Z,18.21
2023-05-19T08:35:17.177Z,18.74
2023-05-19T08:36:17.178Z,19.31
2023-05-19T08:37:17.183Z,19.73
2023-05-19T08:38:17.248Z,20.11
2023-05-19T08:39:17.254Z,20.43
2023-05-19T08:40:17.267Z,20.42
2023-05-19T08:41:17.296Z,20.27
2023-05-19T08:42:17.350Z,19.71
2023-05-19T08:43:17.416Z,19.38
2023-05-19T08:44:19.002Z,19.65
2023-05-19T08:45:17.450Z,20.29
2023-05-19T08:46:17.510Z,20.01
2023-05-19T08:47:20.336Z,20.29
2023-05-19T08:48:17.544Z,20.81
2023-05-19T08:49:17.513Z,21.36
2023-05-19T08:50:17.524Z,21.65
2023-05-19T08:51:17.493Z,21.69
2023-05-19T08:52:17.491Z,21.56
2023-05-19T08:53:31.962Z,21.71
2023-05-19T08:54:18.456Z,22.06
2023-05-19T08:55:17.482Z,22.30
2023-05-19T08:56:17.435Z,22.33
2023-05-19T08:57:17.452Z,22.18
2023-05-19T08:58:17.453Z,21.53
2023-05-19T08:59:17.444Z,21.60
2023-05-19T09:00:17.437Z,21.82
2023-05-19T09:01:17.479Z,22.10
2023-05-19T09:02:17.447Z,22.18
2023-05-19T09:03:23.271Z,22.21
2023-05-19T09:04:18.464Z,22.39
2023-05-19T09:05:17.371Z,22.46
2023-05-19T09:06:17.419Z,22.53
2023-05-19T09:07:17.389Z,22.69
2023-05-19T09:08:17.416Z,22.93
2023-05-19T09:09:17.365Z,22.48
2023-05-19T09:10:17.327Z,22.57
2023-05-19T09:11:17.349Z,22.67
2023-05-19T09:12:17.347Z,22.59
2023-05-19T09:13:17.354Z,21.82
2023-05-19T09:14:17.363Z,21.72
2023-05-19T09:15:17.342Z,21.97
2023-05-19T09:16:17.294Z,22.40
2023-05-19T09:17:17.344Z,22.79
2023-05-19T09:18:17.309Z,23.00
2023-05-19T09:19:17.375Z,23.24
2023-05-19T09:20:17.366Z,23.12
2023-05-19T09:21:17.419Z,22.24
2023-05-19T09:22:17.493Z,22.79
2023-05-19T09:23:17.479Z,23.43
2023-05-19T09:24:17.558Z,23.66
2023-05-19T09:25:17.537Z,23.07
2023-05-19T09:26:17.569Z,23.08
2023-05-19T09:27:17.612Z,22.92
2023-05-19T09:28:17.652Z,20.79
2023-05-19T09:29:17.639Z,20.32
2023-05-19T09:30:17.708Z,20.19
2023-05-19T09:31:18.662Z,19.74
2023-05-19T09:32:17.748Z,18.82
2023-05-19T09:33:18.662Z,18.52
2023-05-19T09:34:17.767Z,19.15
2023-05-19T09:35:17.799Z,19.85
2023-05-19T09:36:17.816Z,20.67
2023-05-19T09:37:17.930Z,21.30
2023-05-19T09:38:17.902Z,21.69
2023-05-19T09:39:17.925Z,21.68
2023-05-19T09:40:18.027Z,22.27
2023-05-19T09:41:18.015Z,22.88
2023-05-19T09:42:18.028Z,23.34
2023-05-19T09:43:18.073Z,23.48
2023-05-19T09:44:18.067Z,23.74
2023-05-19T09:45:18.112Z,24.13
2023-05-19T09:46:18.209Z,22.78
2023-05-19T09:47:18.228Z,21.57
2023-05-19T09:48:18.284Z,20.84
2023-05-19T09:49:18.279Z,19.49
2023-05-19T09:50:18.411Z,20.48
2023-05-19T09:51:19.252Z,19.66
2023-05-19T09:52:18.351Z,20.33
2023-05-19T09:53:18.365Z,20.59
2023-05-19T09:54:18.398Z,18.55
2023-05-19T09:55:18.376Z,19.25
2023-05-19T09:56:18.416Z,20.31
2023-05-19T09:57:18.441Z,20.90
2023-05-19T09:58:18.498Z,21.61
2023-05-19T09:59:18.497Z,21.87
2023-05-19T10:00:18.634Z,21.63
2023-05-19T10:01:18.617Z,22.29
2023-05-19T10:02:18.612Z,21.90
2023-05-19T10:03:18.597Z,21.48
2023-05-19T10:04:18.615Z,21.12
2023-05-19T10:05:19.766Z,21.52
2023-05-19T10:06:18.696Z,19.17
2023-05-19T10:07:18.749Z,19.77
2023-05-19T10:08:18.751Z,20.56
2023-05-19T10:09:18.823Z,21.06
2023-05-19T10:10:18.823Z,20.95
2023-05-19T10:11:18.867Z,21.18
2023-05-19T10:12:18.881Z,21.46
2023-05-19T10:13:18.951Z,22.02
2023-05-19T10:14:18.961Z,21.61
2023-05-19T10:15:20.552Z,22.19
2023-05-19T10:16:19.038Z,21.20
2023-05-19T10:17:19.023Z,21.45
2023-05-19T10:18:18.987Z,21.94
2023-05-19T10:19:19.020Z,21.94
2023-05-19T10:20:19.066Z,22.19
2023-05-19T10:21:18.954Z,22.39
2023-05-19T10:22:19.022Z,22.72
2023-05-19T10:23:18.944Z,22.16
2023-05-19T10:24:18.967Z,21.98
2023-05-19T10:25:18.929Z,22.72
2023-05-19T10:26:18.960Z,23.03
2023-05-19T10:27:18.956Z,23.12
2023-05-19T10:28:18.950Z,23.15
2023-05-19T10:29:18.891Z,23.23
2023-05-19T10:30:18.908Z,23.61
2023-05-19T10:31:18.995Z,21.91
2023-05-19T10:32:18.932Z,20.62
2023-05-19T10:33:18.912Z,20.19
2023-05-19T10:34:18.854Z,20.41
2023-05-19T10:35:18.868Z,19.61
2023-05-19T10:36:18.891Z,19.82
2023-05-19T10:37:18.864Z,20.70
2023-05-19T10:38:18.866Z,21.31
2023-05-19T10:39:18.891Z,20.42
2023-05-19T10:40:18.822Z,20.37
2023-05-19T10:41:18.840Z,20.00
2023-05-19T10:42:18.850Z,20.26
2023-05-19T10:43:18.782Z,21.06
2023-05-19T10:44:18.807Z,20.28
2023-05-19T10:45:18.796Z,20.63
2023-05-19T10:46:18.827Z,20.95
2023-05-19T10:47:18.845Z,20.06
2023-05-19T10:48:19.216Z,20.11
2023-05-19T10:49:18.772Z,20.01
2023-05-19T10:50:18.738Z,19.96
2023-05-19T10:51:18.759Z,20.33
2023-05-19T10:52:18.770Z,20.85
2023-05-19T10:53:18.745Z,21.68
2023-05-19T10:54:18.761Z,22.03
2023-05-19T10:55:18.732Z,21.61
2023-05-19T10:56:18.742Z,22.02
2023-05-19T10:57:18.749Z,22.62
2023-05-19T10:58:18.694Z,22.37
2023-05-19T10:59:18.696Z,22.41
2023-05-19T11:00:18.655Z,21.37
2023-05-19T11:01:18.753Z,20.01
2023-05-19T11:02:18.690Z,20.28
2023-05-19T11:03:18.747Z,20.58
2023-05-19T11:04:18.710Z,21.11
2023-05-19T11:05:18.664Z,21.88
2023-05-19T11:06:18.669Z,21.90
2023-05-19T11:07:18.667Z,21.00
2023-05-19T11:08:18.642Z,19.14
2023-05-19T11:09:19.514Z,18.86
2023-05-19T11:10:18.650Z,18.97
2023-05-19T11:11:18.585Z,19.83
2023-05-19T11:12:18.690Z,20.85
2023-05-19T11:13:18.665Z,21.16
2023-05-19T11:14:18.751Z,21.57
2023-05-19T11:15:18.671Z,21.52
2023-05-19T11:16:18.836Z,20.49
2023-05-19T11:17:18.785Z,20.25
2023-05-19T11:18:18.796Z,19.83
2023-05-19T11:19:18.857Z,20.45
2023-05-19T11:20:18.852Z,21.37
2023-05-19T11:21:18.910Z,21.64
2023-05-19T11:22:18.844Z,22.21
2023-05-19T11:23:18.947Z,22.27
2023-05-19T11:24:18.911Z,22.10
2023-05-19T11:25:18.908Z,22.33
2023-05-19T11:26:18.980Z,21.88
2023-05-19T11:27:19.028Z,21.79
2023-05-19T11:28:19.105Z,22.20
2023-05-19T11:29:19.108Z,21.66
2023-05-19T11:30:19.122Z,22.07
2023-05-19T11:31:19.162Z,22.48
2023-05-19T11:32:19.234Z,22.51
2023-05-19T11:33:19.268Z,22.21
2023-05-19T11:34:19.209Z,22.68
2023-05-19T11:35:19.227Z,22.98
2023-05-19T11:36:19.250Z,22.67
2023-05-19T11:37:19.324Z,23.34
2023-05-19T11:38:19.333Z,23.63
2023-05-19T11:39:19.337Z,22.84
2023-05-19T11:40:19.336Z,21.36
2023-05-19T11:41:20.766Z,21.89
2023-05-19T11:42:19.455Z,21.55
2023-05-19T11:43:19.521Z,21.90
2023-05-19T11:44:19.529Z,22.26
2023-05-19T11:45:19.506Z,22.77
2023-05-19T11:46:19.592Z,22.22
2023-05-19T11:47:19.630Z,21.80
2023-05-19T11:48:19.733Z,22.07
2023-05-19T11:49:19.677Z,22.35
2023-05-19T11:50:19.850Z,22.87
2023-05-19T11:51:19.694Z,22.77
2023-05-19T11:52:19.737Z,22.06
2023-05-19T11:53:19.941Z,22.21
2023-05-19T11:54:19.696Z,22.70
2023-05-19T11:55:19.740Z,22.60
2023-05-19T11:56:19.670Z,22.85
2023-05-19T11:57:19.664Z,22.82
2023-05-19T11:58:19.663Z,23.14
2023-05-19T11:59:19.665Z,23.51
2023-05-19T12:00:19.647Z,23.28
2023-05-19T12:01:19.625Z,23.49
2023-05-19T12:02:19.703Z,22.80
2023-05-19T12:03:19.889Z,22.38
2023-05-19T12:04:19.771Z,22.35
2023-05-19T12:05:19.840Z,20.78
2023-05-19T12:06:19.848Z,20.44
2023-05-19T12:07:19.851Z,19.77
2023-05-19T12:08:19.917Z,20.01
2023-05-19T12:09:19.935Z,20.29
2023-05-19T12:10:19.961Z,20.34
2023-05-19T12:11:20.112Z,20.34
2023-05-19T12:12:20.012Z,20.57
2023-05-19T12:13:19.984Z,20.47
2023-05-19T12:14:20.069Z,20.66
2023-05-19T12:15:20.086Z,20.76
2023-05-19T12:16:20.166Z,20.93
2023-05-19T12:17:20.122Z,20.69
2023-05-19T12:18:20.187Z,20.29
2023-05-19T12:19:20.289Z,20.12
2023-05-19T12:20:20.231Z,20.21
2023-05-19T12:21:20.230Z,20.19
2023-05-19T12:22:20.270Z,20.15
2023-05-19T12:23:20.275Z,20.56
2023-05-19T12:24:20.351Z,20.69
2023-05-19T12:25:20.302Z,20.97
2023-05-19T12:26:20.330Z,20.88
2023-05-19T12:27:20.391Z,20.79
2023-05-19T12:28:20.365Z,20.95
2023-05-19T12:29:20.394Z,21.15
2023-05-19T12:30:20.400Z,21.42
2023-05-19T12:31:20.463Z,21.26
2023-05-19T12:32:20.449Z,21.45
2023-05-19T12:33:20.501Z,20.87
2023-05-19T12:34:20.545Z,21.17
2023-05-19T12:35:20.602Z,21.23
2023-05-19T12:36:20.617Z,21.29
2023-05-19T12:37:20.656Z,20.96
2023-05-19T12:38:20.653Z,20.83
2023-05-19T12:39:21.478Z,20.33
2023-05-19T12:40:20.690Z,20.35
2023-05-19T12:41:20.717Z,20.48
2023-05-19T12:42:20.787Z,20.59
2023-05-19T12:43:20.802Z,20.62
2023-05-19T12:44:20.827Z,20.37
2023-05-19T12:45:20.830Z,20.15
2023-05-19T12:46:20.879Z,20.32
2023-05-19T12:47:20.915Z,20.41
2023-05-19T12:48:20.907Z,20.73
2023-05-19T12:49:20.890Z,20.84
2023-05-19T12:50:20.928Z,20.83
2023-05-19T12:51:20.941Z,20.59
2023-05-19T12:52:21.022Z,20.88
2023-05-19T12:53:21.063Z,20.95
2023-05-19T12:54:21.072Z,20.95